Main page
METAR-TAF:

METAR-TAF

Airports :

Oil platform

D15-fa-1, Netherlands

latitude: 54-19-32N, longitude: 2-56-09E, elevation: 36 m

Current weather observation

The report was made 37 minutes ago, at 20:55 UTC
Wind 9 kt from the East
Temperature 8°C
Humidity 100%
Pressure 1022 hPa
Visibility: 0250 m
drizzle

METAR: EHDV 202055Z AUTO 10009KT 0250 DZ VV000 08/08 Q1022 W///H///

Time: 23:32 (21:32 UTC)


TAF: missing

Weather observations and forecasts of more than 4000 airports (METAR and TAF reports).

The available stations are represented by yellow and red dots on the map.

Hover mouse over dot to see the name of the station.

Then click to see weather observations and forecasts.

To change the map : click on the green buttons with a black cross to zoom in, on the green button with a dash to zoom out, or on the green arrows for adjacent maps.


METAR-TAF: